»·PEaware :: MRR14 W12-13W

MRR14 :: W12-13W

FLIGHT INFORMATION

Flight Status: Arrived
Operator:
San Juan Airlines
More flights by this operator :: More flights under this callsign
Pilot: Alex L. (5269)
Aircraft: CESSNA 207 TURBO STATIONAIR
(C207)
More flights by this aircraft type
Origin: W12 Lost River Resort
United States
Destination: 13W Camano I
United States
More flights between these airports :: More routes between these airports
Route: +
File this flight plan on PilotEdge
Remarks: San Juan Virtual Airlines and FSEconomy flight
Altitude:
(Current/Filed)
6,500ft
Speed:
(Current/Filed)
144kts
Departed: 14-Jan-17 12:48 PM
Arrived: 14-Jan-17 01:40 PM
Distance/Time
Traveled:
81nm/0:52
Distance/Time
To Go:
Arrived

Flight Plot

Page will automatically refresh every two minutes.


Map Options




Map Legend


Flown Route
Filed Route
Departure Airport
Arrival Airport
Navaid (VOR, NDB)
Fix

Horizontal Profiles

Position Reports

Time Latitude Longitude Heading Altitude Ground
Speed
14-Jan-17 12:41 48.651320 -120.504622 226 2418ft 0kts
14-Jan-17 12:42 48.651320 -120.504623 226 2418ft 0kts
14-Jan-17 12:43 48.651319 -120.504624 226 2418ft 0kts
14-Jan-17 12:44 48.651688 -120.505707 308 2418ft 10kts
14-Jan-17 12:45 48.652336 -120.506594 308 2418ft 0kts
14-Jan-17 12:46 48.652338 -120.506597 308 2418ft 0kts
14-Jan-17 12:47 48.652454 -120.506863 274 2418ft 2kts
14-Jan-17 12:48 48.643398 -120.492329 136 2870ft 88kts
14-Jan-17 12:49 48.617863 -120.462107 153 3237ft 134kts
14-Jan-17 12:50 48.589597 -120.472434 250 3540ft 133kts
14-Jan-17 12:51 48.601366 -120.520703 287 3966ft 127kts
14-Jan-17 12:52 48.603224 -120.572367 262 4311ft 124kts
14-Jan-17 12:53 48.594743 -120.610879 230 4800ft 118kts
14-Jan-17 12:54 48.559895 -120.629703 172 5166ft 128kts
14-Jan-17 12:55 48.527903 -120.641139 215 5704ft 119kts
14-Jan-17 12:56 48.516168 -120.685313 232 6033ft 125kts
14-Jan-17 12:57 48.512707 -120.725590 323 6156ft 132kts
14-Jan-17 12:58 48.545929 -120.752954 326 6238ft 135kts
14-Jan-17 12:59 48.574385 -120.774750 325 6250ft 136kts
14-Jan-17 13:00 48.607769 -120.805367 321 6000ft 142kts
14-Jan-17 13:01 48.637421 -120.843416 329 5706ft 147kts
14-Jan-17 13:02 48.681244 -120.870701 329 5404ft 146kts
14-Jan-17 13:03 48.706719 -120.916206 281 4876ft 144kts
14-Jan-17 13:04 48.714976 -120.964983 290 4499ft 144kts
14-Jan-17 13:05 48.737525 -121.037147 271 4092ft 142kts
14-Jan-17 13:06 48.729601 -121.073864 249 4041ft 137kts
14-Jan-17 13:07 48.718724 -121.129901 253 3865ft 140kts
14-Jan-17 13:08 48.708365 -121.186477 248 3675ft 139kts
14-Jan-17 13:09 48.687321 -121.235365 229 3465ft 140kts
14-Jan-17 13:10 48.664803 -121.283852 227 3232ft 143kts
14-Jan-17 13:11 48.640740 -121.330292 231 3239ft 140kts
14-Jan-17 13:12 48.613372 -121.372050 218 3239ft 139kts
14-Jan-17 13:13 48.582893 -121.409747 216 3252ft 143kts
14-Jan-17 13:14 48.549369 -121.442219 211 3291ft 144kts
14-Jan-17 13:15 48.515602 -121.474139 211 3298ft 144kts
14-Jan-17 13:16 48.488519 -121.516945 246 3269ft 143kts
14-Jan-17 13:17 48.479586 -121.572251 297 3280ft 136kts
14-Jan-17 13:18 48.497889 -121.618508 301 3956ft 126kts
14-Jan-17 13:19 48.516602 -121.665729 298 4117ft 134kts
14-Jan-17 13:20 48.538013 -121.712966 301 4233ft 140kts
14-Jan-17 13:21 48.546961 -121.766366 262 4219ft 136kts
14-Jan-17 13:22 48.544980 -121.822950 266 4194ft 134kts
14-Jan-17 13:23 48.543666 -121.879146 265 4205ft 134kts
14-Jan-17 13:24 48.541733 -121.935454 263 4305ft 136kts
14-Jan-17 13:25 48.538818 -121.992906 263 4276ft 136kts
14-Jan-17 13:26 48.535281 -122.046499 263 3843ft 121kts
14-Jan-17 13:27 48.531250 -122.097647 263 3062ft 125kts
14-Jan-17 13:28 48.524535 -122.148772 258 2284ft 123kts
14-Jan-17 13:29 48.516481 -122.199850 252 1502ft 129kts
14-Jan-17 13:30 48.504644 -122.250470 250 768ft 125kts
14-Jan-17 13:31 48.490777 -122.297153 234 653ft 131kts
14-Jan-17 13:32 48.467708 -122.340775 230 652ft 133kts
14-Jan-17 13:33 48.444880 -122.382715 230 962ft 133kts
14-Jan-17 13:34 48.417273 -122.417342 189 1025ft 133kts
14-Jan-17 13:35 48.380269 -122.426711 188 1022ft 134kts
14-Jan-17 13:36 48.344746 -122.435611 188 1017ft 109kts
14-Jan-17 13:37 48.315777 -122.436852 169 842ft 103kts
14-Jan-17 13:38 48.289038 -122.435586 179 582ft 84kts
14-Jan-17 13:39 48.266909 -122.435868 179 310ft 65kts
14-Jan-17 13:40 48.255285 -122.436100 178 148ft 3kts
14-Jan-17 13:41 48.254905 -122.437980 268 148ft 3kts
14-Jan-17 13:42 48.254800 -122.438155 3 148ft 0kts
14-Jan-17 13:43 48.254801 -122.438155 3 148ft 0kts
14-Jan-17 13:44 48.254802 -122.438155 3 148ft 0kts
14-Jan-17 13:45 48.254802 -122.438155 3 148ft 0kts
14-Jan-17 13:46 48.254803 -122.438155 3 148ft 0kts
14-Jan-17 13:47 48.254804 -122.438155 3 148ft 0kts
14-Jan-17 13:48 48.254805 -122.438155 3 148ft 0kts

Navigation Log

Ident Type
Flight plan parsing failed, navigation log unavailable